Time;durP1;ratioP1;P1;durP2;ratioP2;P2;SDS_P1;SDS_P2;PMS_P1;PMS_P2;Temp;Humidity;BMP_temperature;BMP_pressure;BME280_temperature;BME280_humidity;BME280_pressure;Samples;Min_cycle;Max_cycle;Signal;HPM_P1;HPM_P2
2023/08/27 00:01:12;;;;;;;12.13;3.85;;;;;;;14.02;100.00;100508.59;4972745;28;20125;-63
2023/08/27 00:03:38;;;;;;;10.73;3.63;;;;;;;13.97;100.00;100519.94;4973541;28;20106;-62
2023/08/27 00:06:05;;;;;;;8.88;3.70;;;;;;;13.98;100.00;100531.59;4972927;28;20050;-62
2023/08/27 00:08:32;;;;;;;7.43;4.53;;;;;;;13.93;100.00;100528.59;4972924;28;20046;-62
2023/08/27 00:11:00;;;;;;;8.27;4.20;;;;;;;13.85;100.00;100505.28;4972626;28;20109;-62
2023/08/27 00:13:27;;;;;;;9.25;3.88;;;;;;;13.81;100.00;100491.31;4972369;28;20534;-62
2023/08/27 00:15:53;;;;;;;8.55;3.65;;;;;;;13.95;100.00;100494.19;4972504;28;20418;-62
2023/08/27 00:18:20;;;;;;;10.45;3.15;;;;;;;13.91;100.00;100492.88;4972366;28;20138;-62
2023/08/27 00:20:47;;;;;;;8.50;3.55;;;;;;;13.81;100.00;100469.75;4972376;28;20047;-62
2023/08/27 00:23:15;;;;;;;6.05;3.20;;;;;;;13.93;100.00;100471.97;4972329;28;20054;-62
2023/08/27 00:25:45;;;;;;;5.90;3.60;;;;;;;13.91;100.00;100476.69;4972477;28;20047;-62
2023/08/27 00:28:13;;;;;;;10.07;3.95;;;;;;;13.85;100.00;100474.78;4972298;28;20047;-63
2023/08/27 00:30:40;;;;;;;9.13;3.65;;;;;;;13.85;100.00;100477.47;4972854;28;20055;-62
2023/08/27 00:33:07;;;;;;;7.78;4.32;;;;;;;13.85;100.00;100488.25;4972374;28;20408;-62
2023/08/27 00:35:36;;;;;;;5.88;3.80;;;;;;;13.81;100.00;100483.25;4972180;28;20053;-63
2023/08/27 00:38:05;;;;;;;8.00;4.15;;;;;;;13.87;100.00;100478.94;4972028;28;20391;-62
2023/08/27 00:40:31;;;;;;;8.05;4.25;;;;;;;13.87;100.00;100480.81;4972405;28;20486;-63
2023/08/27 00:42:58;;;;;;;14.88;4.38;;;;;;;13.92;100.00;100476.53;4972069;28;20051;-62
2023/08/27 00:45:26;;;;;;;9.82;3.90;;;;;;;13.84;100.00;100479.34;4972071;28;20353;-61
2023/08/27 00:47:53;;;;;;;10.43;3.38;;;;;;;13.88;100.00;100488.72;4971481;28;20043;-62
2023/08/27 00:50:20;;;;;;;8.18;4.13;;;;;;;13.86;100.00;100495.31;4971770;28;20051;-61
2023/08/27 00:52:46;;;;;;;11.18;4.22;;;;;;;13.84;100.00;100487.44;4971594;28;20047;-62
2023/08/27 00:55:14;;;;;;;8.45;3.83;;;;;;;13.80;100.00;100486.97;4971905;28;20050;-62
2023/08/27 00:57:42;;;;;;;10.38;3.67;;;;;;;13.79;100.00;100484.44;4972384;28;20113;-61
2023/08/27 01:00:09;;;;;;;7.95;3.58;;;;;;;13.76;100.00;100477.56;4971662;28;20042;-62
2023/08/27 01:02:38;;;;;;;11.38;3.65;;;;;;;13.77;100.00;100481.13;4971596;28;20578;-62
2023/08/27 01:09:06;;;;;;;8.48;3.40;;;;;;;13.78;100.00;100467.44;4970262;28;20061;-61
2023/08/27 01:11:45;;;;;;;9.00;3.53;;;;;;;13.78;100.00;100461.22;4969741;28;20113;-62
2023/08/27 01:14:13;;;;;;;6.20;3.30;;;;;;;13.75;100.00;100472.34;4968924;28;20066;-62
2023/08/27 01:16:43;;;;;;;9.10;3.70;;;;;;;13.75;100.00;100483.94;4970768;28;20507;-62
2023/08/27 01:19:14;;;;;;;9.13;3.60;;;;;;;13.78;100.00;100483.59;4969616;28;20194;-62
2023/08/27 01:21:42;;;;;;;11.50;4.32;;;;;;;13.76;100.00;100471.31;4970899;28;20067;-62
2023/08/27 01:24:09;;;;;;;7.72;3.35;;;;;;;13.77;100.00;100473.84;4970166;28;20050;-62
2023/08/27 01:26:45;;;;;;;6.95;3.40;;;;;;;13.75;100.00;100467.78;4970890;28;20103;-62
2023/08/27 01:29:30;;;;;;;8.18;3.20;;;;;;;13.79;100.00;100462.88;4969469;28;20086;-63
2023/08/27 01:32:22;;;;;;;7.68;3.35;;;;;;;13.80;100.00;100454.63;4968794;28;20050;-64
2023/08/27 01:34:48;;;;;;;6.10;3.63;;;;;;;13.76;100.00;100460.53;4970730;28;20403;-63
2023/08/27 01:37:16;;;;;;;6.30;3.40;;;;;;;13.67;100.00;100453.56;4969648;28;20295;-63
2023/08/27 01:39:43;;;;;;;12.82;4.82;;;;;;;13.66;100.00;100473.44;4970376;28;20557;-64
2023/08/27 01:42:12;;;;;;;5.82;3.42;;;;;;;13.63;100.00;100495.38;4970081;28;20503;-63
2023/08/27 01:44:39;;;;;;;6.70;3.28;;;;;;;13.65;100.00;100488.78;4970115;28;20047;-63
2023/08/27 01:47:06;;;;;;;10.30;3.60;;;;;;;13.72;100.00;100478.91;4970270;28;20055;-62
2023/08/27 01:49:33;;;;;;;9.18;3.13;;;;;;;13.69;100.00;100457.72;4970560;28;20415;-62
2023/08/27 01:52:00;;;;;;;10.50;3.53;;;;;;;13.74;100.00;100439.16;4970598;28;20062;-62
2023/08/27 01:54:26;;;;;;;6.07;3.38;;;;;;;13.78;100.00;100455.81;4970537;28;20074;-62
2023/08/27 01:56:53;;;;;;;6.03;3.67;;;;;;;13.77;100.00;100465.78;4970664;28;20138;-62
2023/08/27 01:59:19;;;;;;;11.40;3.50;;;;;;;13.73;100.00;100464.41;4970341;28;20503;-62
2023/08/27 02:01:46;;;;;;;8.15;3.10;;;;;;;13.72;100.00;100457.34;4970330;28;20066;-62
2023/08/27 02:04:13;;;;;;;8.38;3.15;;;;;;;13.72;100.00;100446.56;4972083;28;20054;-63
2023/08/27 02:06:40;;;;;;;9.45;3.30;;;;;;;13.63;100.00;100436.06;4971446;28;20466;-62
2023/08/27 02:09:07;;;;;;;9.27;3.35;;;;;;;13.57;100.00;100429.59;4974625;28;20078;-62
2023/08/27 02:11:33;;;;;;;7.30;3.58;;;;;;;13.64;100.00;100426.97;4971786;28;20053;-63
2023/08/27 02:14:00;;;;;;;7.30;3.22;;;;;;;13.70;100.00;100437.84;4974337;28;20442;-63
2023/08/27 02:16:27;;;;;;;11.75;3.38;;;;;;;13.65;100.00;100445.66;4973227;28;20077;-62
2023/08/27 02:18:53;;;;;;;8.00;3.38;;;;;;;13.56;100.00;100453.00;4973458;28;20070;-62
2023/08/27 02:21:20;;;;;;;9.60;3.40;;;;;;;13.53;100.00;100439.06;4971890;28;20157;-63
2023/08/27 02:23:46;;;;;;;9.27;4.00;;;;;;;13.52;100.00;100407.75;4972041;28;20039;-63
2023/08/27 02:26:13;;;;;;;6.60;3.00;;;;;;;13.56;100.00;100409.88;4972574;28;20634;-63
2023/08/27 02:28:40;;;;;;;7.05;3.88;;;;;;;13.56;100.00;100419.81;4971255;28;20051;-63
2023/08/27 02:31:08;;;;;;;8.15;3.83;;;;;;;13.55;100.00;100445.09;4973145;28;20055;-63
2023/08/27 02:33:35;;;;;;;11.18;3.75;;;;;;;13.55;100.00;100459.41;4973957;28;20051;-63
2023/08/27 02:36:02;;;;;;;6.80;3.40;;;;;;;13.53;100.00;100464.16;4971012;28;20043;-62
2023/08/27 02:38:29;;;;;;;9.00;4.00;;;;;;;13.51;100.00;100444.63;4955350;28;20047;-63
2023/08/27 02:40:56;;;;;;;5.45;3.40;;;;;;;13.49;100.00;100448.53;4972490;28;20083;-62
2023/08/27 02:43:22;;;;;;;10.23;4.10;;;;;;;13.50;100.00;100447.53;4973288;28;20483;-63
2023/08/27 02:45:50;;;;;;;8.90;4.07;;;;;;;13.49;100.00;100443.16;4972407;28;20414;-63
2023/08/27 02:48:17;;;;;;;6.25;3.72;;;;;;;13.52;100.00;100432.00;4971938;28;20426;-63
2023/08/27 02:50:44;;;;;;;6.90;4.05;;;;;;;13.47;100.00;100416.41;4972378;28;20051;-62
2023/08/27 02:53:11;;;;;;;10.02;4.22;;;;;;;13.49;100.00;100408.09;4972793;28;20047;-63
2023/08/27 02:55:37;;;;;;;7.50;4.20;;;;;;;13.50;100.00;100404.41;4972372;28;20054;-62
2023/08/27 02:58:04;;;;;;;10.35;4.95;;;;;;;13.50;100.00;100426.81;4972011;28;20074;-63
2023/08/27 03:00:30;;;;;;;10.65;4.43;;;;;;;13.48;100.00;100411.84;4971405;28;20051;-62
2023/08/27 03:02:57;;;;;;;11.77;4.20;;;;;;;13.49;100.00;100419.75;4972613;28;20047;-63
2023/08/27 03:05:24;;;;;;;11.57;4.13;;;;;;;13.45;100.00;100449.94;4970373;28;20043;-64
2023/08/27 03:07:51;;;;;;;8.07;4.75;;;;;;;13.37;100.00;100461.66;4972824;28;20071;-63
2023/08/27 03:10:17;;;;;;;7.63;4.07;;;;;;;13.41;100.00;100456.72;4973454;28;20051;-63
2023/08/27 03:12:44;;;;;;;13.48;4.22;;;;;;;13.37;100.00;100445.47;4972700;28;20042;-63
2023/08/27 03:15:10;;;;;;;15.60;4.18;;;;;;;13.38;100.00;100438.22;4972972;28;20106;-62
2023/08/27 03:17:37;;;;;;;8.20;3.78;;;;;;;13.39;100.00;100429.09;4972117;28;20055;-63
2023/08/27 03:20:04;;;;;;;7.57;4.03;;;;;;;13.38;100.00;100412.13;4954544;28;20403;-63
2023/08/27 03:22:31;;;;;;;7.13;4.00;;;;;;;13.39;100.00;100416.50;4969714;28;20411;-63
2023/08/27 03:25:00;;;;;;;7.10;4.30;;;;;;;13.37;100.00;100426.63;4972137;28;20097;-63
2023/08/27 03:27:29;;;;;;;12.73;4.30;;;;;;;13.38;100.00;100430.97;4972583;28;20454;-62
2023/08/27 03:29:56;;;;;;;8.50;3.83;;;;;;;13.33;100.00;100434.22;4972637;28;20050;-63
2023/08/27 03:32:24;;;;;;;7.65;3.65;;;;;;;13.29;100.00;100422.16;4954654;28;20074;-63
2023/08/27 03:34:50;;;;;;;9.68;3.47;;;;;;;13.24;100.00;100421.03;4973286;28;20050;-62
2023/08/27 03:37:17;;;;;;;6.00;3.75;;;;;;;13.17;100.00;100412.03;4972734;28;20043;-62
2023/08/27 03:39:43;;;;;;;16.98;11.77;;;;;;;13.16;100.00;100394.19;4971447;28;20054;-63
2023/08/27 03:42:10;;;;;;;12.75;8.02;;;;;;;13.18;100.00;100409.16;4970996;28;20070;-63
2023/08/27 03:44:37;;;;;;;12.73;4.47;;;;;;;13.13;100.00;100416.94;4970305;28;20424;-62
2023/08/27 03:47:04;;;;;;;9.30;4.10;;;;;;;13.14;100.00;100412.38;4970911;28;20051;-62
2023/08/27 03:49:31;;;;;;;7.03;4.28;;;;;;;13.16;100.00;100396.88;4971069;28;20062;-62
2023/08/27 03:51:59;;;;;;;8.35;4.03;;;;;;;13.10;100.00;100371.53;4970310;28;20046;-62
2023/08/27 03:54:27;;;;;;;7.22;4.47;;;;;;;13.08;100.00;100362.81;4971252;28;20569;-62
2023/08/27 03:56:54;;;;;;;11.52;4.45;;;;;;;13.13;100.00;100365.75;4972564;28;20118;-62
2023/08/27 03:59:20;;;;;;;9.18;3.97;;;;;;;13.15;100.00;100355.66;4971073;28;20054;-62
2023/08/27 04:01:47;;;;;;;7.72;3.67;;;;;;;13.19;100.00;100358.81;4969595;28;20435;-62
2023/08/27 04:04:13;;;;;;;9.35;3.95;;;;;;;13.20;100.00;100353.22;4970715;28;20105;-62
2023/08/27 04:06:40;;;;;;;12.25;4.13;;;;;;;13.21;100.00;100349.50;4969368;28;20043;-62
2023/08/27 04:09:07;;;;;;;9.90;4.10;;;;;;;13.19;100.00;100362.34;4970448;28;20126;-62
2023/08/27 04:11:34;;;;;;;8.65;4.40;;;;;;;13.23;100.00;100379.78;4971056;28;20046;-63
2023/08/27 04:14:01;;;;;;;8.45;3.70;;;;;;;13.25;100.00;100385.84;4954615;28;20050;-62
2023/08/27 04:16:27;;;;;;;4.35;3.33;;;;;;;13.19;100.00;100391.13;4971654;28;20454;-62
2023/08/27 04:18:54;;;;;;;7.55;4.13;;;;;;;13.21;100.00;100389.06;4971164;28;20046;-63
2023/08/27 04:21:21;;;;;;;8.45;4.15;;;;;;;13.23;100.00;100385.19;4972603;28;20057;-63
2023/08/27 04:23:47;;;;;;;6.30;3.58;;;;;;;13.25;100.00;100375.06;4968587;28;20054;-63
2023/08/27 04:26:14;;;;;;;6.68;3.80;;;;;;;13.26;100.00;100379.44;4969769;28;20097;-63
2023/08/27 04:28:40;;;;;;;8.98;4.05;;;;;;;13.25;100.00;100372.38;4970090;28;20054;-63
2023/08/27 04:31:07;;;;;;;8.18;4.15;;;;;;;13.19;100.00;100366.91;4969780;28;20050;-63
2023/08/27 04:33:33;;;;;;;8.82;3.97;;;;;;;13.09;100.00;100370.69;4970463;28;20046;-62
2023/08/27 04:36:00;;;;;;;9.95;4.82;;;;;;;13.11;100.00;100387.50;4971422;28;20562;-63
2023/08/27 04:38:27;;;;;;;8.13;4.47;;;;;;;13.15;100.00;100385.28;4969612;28;20097;-63
2023/08/27 04:40:54;;;;;;;11.13;4.05;;;;;;;13.17;100.00;100385.91;4970481;28;20388;-64
2023/08/27 04:43:21;;;;;;;7.05;4.50;;;;;;;13.21;100.00;100394.47;4970109;28;20043;-63
2023/08/27 04:45:48;;;;;;;7.85;4.15;;;;;;;13.23;100.00;100395.13;4969788;28;20561;-64
2023/08/27 04:48:15;;;;;;;6.95;4.18;;;;;;;13.21;100.00;100406.06;4970529;28;20054;-63
2023/08/27 04:50:46;;;;;;;8.30;4.78;;;;;;;13.27;100.00;100399.13;4970134;28;20047;-63
2023/08/27 04:53:13;;;;;;;9.35;5.55;;;;;;;13.33;100.00;100404.59;4970512;28;20070;-63
2023/08/27 04:55:40;;;;;;;5.18;3.92;;;;;;;13.34;100.00;100400.88;4969286;28;20414;-62
2023/08/27 04:58:08;;;;;;;10.02;4.75;;;;;;;13.41;100.00;100386.66;4969055;28;20117;-62
2023/08/27 05:00:35;;;;;;;10.80;4.68;;;;;;;13.39;100.00;100394.09;4971322;28;20085;-62
2023/08/27 05:03:02;;;;;;;10.77;6.30;;;;;;;13.26;100.00;100395.59;4970776;28;20043;-62
2023/08/27 05:05:29;;;;;;;12.48;5.45;;;;;;;13.18;100.00;100393.00;4969222;28;20074;-62
2023/08/27 05:07:55;;;;;;;11.35;5.85;;;;;;;13.26;100.00;100386.69;4969711;28;20388;-63
2023/08/27 05:10:22;;;;;;;9.88;5.65;;;;;;;13.23;100.00;100387.03;4971241;28;20051;-62
2023/08/27 05:12:49;;;;;;;9.63;5.47;;;;;;;13.27;100.00;100381.09;4968312;28;20101;-62
2023/08/27 05:15:16;;;;;;;13.15;5.00;;;;;;;13.31;100.00;100385.06;4970275;28;20078;-62
2023/08/27 05:17:42;;;;;;;8.38;5.25;;;;;;;13.29;100.00;100381.75;4968742;28;20078;-62
2023/08/27 05:20:10;;;;;;;9.52;4.60;;;;;;;13.42;100.00;100389.16;4971145;28;20073;-62
2023/08/27 05:22:36;;;;;;;8.98;4.32;;;;;;;13.47;100.00;100383.22;4968457;28;20051;-62
2023/08/27 05:25:04;;;;;;;7.18;4.82;;;;;;;13.45;100.00;100371.78;4943893;28;20054;-63
2023/08/27 05:27:30;;;;;;;8.65;4.70;;;;;;;13.40;100.00;100366.13;4968573;28;20055;-62
2023/08/27 05:29:59;;;;;;;7.30;4.47;;;;;;;13.44;100.00;100372.81;4970457;28;20396;-63
2023/08/27 05:32:25;;;;;;;9.85;4.75;;;;;;;13.55;100.00;100386.63;4969443;28;20142;-63
2023/08/27 05:34:54;;;;;;;9.57;4.13;;;;;;;13.69;100.00;100400.28;4970272;28;20672;-62
2023/08/27 05:37:20;;;;;;;12.25;5.25;;;;;;;13.77;100.00;100411.84;4970205;28;20073;-62
2023/08/27 05:39:47;;;;;;;9.85;5.78;;;;;;;13.82;100.00;100409.41;4973998;28;20078;-62
2023/08/27 05:42:14;;;;;;;9.38;4.50;;;;;;;13.91;100.00;100410.16;4971830;28;20415;-62
2023/08/27 05:44:40;;;;;;;11.90;4.55;;;;;;;13.92;100.00;100408.28;4972493;28;20507;-63
2023/08/27 05:47:07;;;;;;;14.00;4.55;;;;;;;14.07;100.00;100409.06;4974283;28;20368;-63
2023/08/27 05:49:33;;;;;;;10.10;4.47;;;;;;;14.23;100.00;100406.13;4973496;28;20050;-62
2023/08/27 05:52:00;;;;;;;9.65;4.47;;;;;;;14.35;100.00;100405.59;4973372;28;20051;-62
2023/08/27 05:54:27;;;;;;;10.57;4.68;;;;;;;14.19;100.00;100401.31;4971145;28;20058;-62
2023/08/27 05:56:53;;;;;;;8.52;4.38;;;;;;;14.02;100.00;100408.81;4974151;28;20070;-63
2023/08/27 05:59:20;;;;;;;11.15;4.30;;;;;;;13.94;100.00;100390.88;4973444;28;20074;-62
2023/08/27 06:01:47;;;;;;;8.82;4.82;;;;;;;13.88;100.00;100382.72;4971325;28;20557;-62
2023/08/27 06:04:13;;;;;;;7.10;4.80;;;;;;;13.86;100.00;100377.50;4974148;28;20074;-62
2023/08/27 06:06:41;;;;;;;9.00;4.88;;;;;;;13.86;100.00;100371.28;4973319;28;20553;-63
2023/08/27 06:09:07;;;;;;;8.00;4.55;;;;;;;14.01;100.00;100386.41;4972276;28;20047;-63
2023/08/27 06:11:34;;;;;;;7.35;4.57;;;;;;;14.11;100.00;100385.22;4973248;28;20047;-62
2023/08/27 06:14:00;;;;;;;10.73;4.72;;;;;;;14.19;100.00;100372.47;4973049;28;20093;-62
2023/08/27 06:16:27;;;;;;;9.90;4.43;;;;;;;14.24;100.00;100379.97;4972828;28;20054;-63
2023/08/27 06:18:53;;;;;;;9.90;4.78;;;;;;;14.41;100.00;100392.19;4973780;28;20074;-64
2023/08/27 06:21:20;;;;;;;9.77;4.68;;;;;;;14.56;100.00;100394.78;4972605;28;20109;-63
2023/08/27 06:23:47;;;;;;;11.45;4.90;;;;;;;14.68;100.00;100398.66;4974081;28;20090;-63
2023/08/27 06:26:13;;;;;;;7.18;4.57;;;;;;;14.74;100.00;100402.47;4972407;28;20490;-62
2023/08/27 06:28:40;;;;;;;9.68;4.97;;;;;;;14.84;100.00;100404.81;4971804;28;20105;-62
2023/08/27 06:31:07;;;;;;;9.32;5.22;;;;;;;14.86;100.00;100402.75;4972532;28;20047;-61
2023/08/27 06:33:33;;;;;;;7.75;4.70;;;;;;;14.89;100.00;100394.28;4973352;28;20414;-62
2023/08/27 06:36:00;;;;;;;11.68;4.88;;;;;;;15.01;100.00;100387.28;4972359;28;20046;-62
2023/08/27 06:38:26;;;;;;;14.32;4.97;;;;;;;15.07;100.00;100408.13;4972484;28;20121;-62
2023/08/27 06:40:53;;;;;;;12.65;4.63;;;;;;;15.06;100.00;100409.16;4971993;28;20046;-62
2023/08/27 06:43:20;;;;;;;7.47;4.47;;;;;;;15.18;100.00;100418.38;4971513;28;20101;-62
2023/08/27 06:45:47;;;;;;;6.07;4.25;;;;;;;15.22;100.00;100418.81;4970859;28;20043;-62
2023/08/27 06:48:14;;;;;;;7.15;4.18;;;;;;;15.28;100.00;100419.88;4972692;28;20050;-62
2023/08/27 06:50:40;;;;;;;8.15;4.32;;;;;;;15.48;100.00;100410.03;4971446;28;20054;-62
2023/08/27 06:53:07;;;;;;;11.02;4.05;;;;;;;15.71;100.00;100417.88;4971965;28;20059;-62
2023/08/27 06:55:33;;;;;;;8.50;3.45;;;;;;;15.70;100.00;100416.19;4972217;28;20046;-63
2023/08/27 06:58:00;;;;;;;6.68;4.30;;;;;;;15.67;100.00;100416.59;4971280;28;20047;-63
2023/08/27 07:00:27;;;;;;;6.43;3.70;;;;;;;15.58;100.00;100424.00;4971139;28;20125;-63
2023/08/27 07:02:57;;;;;;;7.22;4.40;;;;;;;15.48;100.00;100423.53;4970855;28;20392;-63
2023/08/27 07:05:24;;;;;;;7.57;3.22;;;;;;;15.54;100.00;100420.03;4973057;28;20046;-62
2023/08/27 07:07:50;;;;;;;9.63;4.28;;;;;;;15.47;100.00;100419.19;4970963;28;20047;-62
2023/08/27 07:10:17;;;;;;;7.40;3.45;;;;;;;15.42;100.00;100416.22;4972977;28;20046;-62
2023/08/27 07:12:44;;;;;;;7.20;3.80;;;;;;;15.07;100.00;100418.91;4970952;28;20055;-62
2023/08/27 07:15:13;;;;;;;8.10;3.22;;;;;;;15.16;100.00;100428.56;4955330;28;20418;-62
2023/08/27 07:17:41;;;;;;;7.80;2.90;;;;;;;15.36;100.00;100433.22;4971368;28;20051;-62
2023/08/27 07:20:09;;;;;;;8.13;3.88;;;;;;;15.68;100.00;100443.44;4972273;28;20109;-63
2023/08/27 07:22:35;;;;;;;6.07;2.92;;;;;;;15.82;100.00;100448.91;4972564;28;20077;-61
2023/08/27 07:25:03;;;;;;;9.00;3.17;;;;;;;15.85;100.00;100441.22;4971486;28;20051;-62
2023/08/27 07:27:30;;;;;;;8.20;3.47;;;;;;;15.91;100.00;100436.88;4971082;28;20057;-61
2023/08/27 07:29:56;;;;;;;7.13;3.50;;;;;;;15.86;100.00;100429.38;4972828;28;20578;-61
2023/08/27 07:32:23;;;;;;;6.60;3.53;;;;;;;15.94;100.00;100425.63;4971662;28;20100;-61
2023/08/27 07:34:50;;;;;;;9.75;3.45;;;;;;;16.15;100.00;100432.78;4970959;28;20051;-61
2023/08/27 07:37:16;;;;;;;8.98;3.85;;;;;;;16.18;100.00;100427.78;4973009;28;20121;-61
2023/08/27 07:39:43;;;;;;;5.90;2.67;;;;;;;16.43;100.00;100419.09;4970016;28;20128;-61
2023/08/27 07:42:09;;;;;;;8.18;3.13;;;;;;;16.61;100.00;100419.38;4971623;28;20046;-62
2023/08/27 07:44:36;;;;;;;7.38;3.30;;;;;;;16.92;100.00;100408.94;4971107;28;20574;-62
2023/08/27 07:47:03;;;;;;;6.28;2.97;;;;;;;16.85;100.00;100398.09;4971086;28;20050;-62
2023/08/27 07:49:30;;;;;;;9.30;3.30;;;;;;;17.02;100.00;100406.63;4970545;28;20058;-62
2023/08/27 07:51:56;;;;;;;8.57;3.13;;;;;;;17.34;100.00;100418.50;4971200;28;20101;-62
2023/08/27 07:54:24;;;;;;;6.60;3.03;;;;;;;17.42;100.00;100423.69;4972918;28;20047;-62
2023/08/27 07:56:50;;;;;;;7.88;2.95;;;;;;;17.16;100.00;100393.91;4969025;28;20077;-62
2023/08/27 07:59:17;;;;;;;9.25;2.70;;;;;;;17.31;100.00;100391.78;4970779;28;20483;-63
2023/08/27 08:01:43;;;;;;;6.72;2.90;;;;;;;17.62;100.00;100399.22;4967039;28;20142;-63
2023/08/27 08:04:13;;;;;;;4.38;2.95;;;;;;;18.23;100.00;100408.75;4971734;28;20051;-63
2023/08/27 08:06:40;;;;;;;4.88;2.50;;;;;;;18.50;100.00;100415.66;4970995;28;20105;-63
2023/08/27 08:09:07;;;;;;;9.05;2.92;;;;;;;18.40;100.00;100412.59;4970713;28;20051;-63
2023/08/27 08:11:34;;;;;;;4.85;2.65;;;;;;;18.66;100.00;100413.47;4954577;28;20050;-62
2023/08/27 08:14:01;;;;;;;6.32;2.67;;;;;;;18.92;100.00;100412.41;4971034;28;20471;-62
2023/08/27 08:16:28;;;;;;;5.20;3.00;;;;;;;18.56;100.00;100408.53;4968397;28;20047;-64
2023/08/27 08:18:54;;;;;;;9.48;4.10;;;;;;;18.34;100.00;100409.94;4970502;28;20089;-63
2023/08/27 08:21:21;;;;;;;7.35;2.72;;;;;;;18.32;100.00;100402.00;4970832;28;20121;-63
2023/08/27 08:23:48;;;;;;;6.32;2.25;;;;;;;17.91;100.00;100397.84;4969508;28;20043;-63
2023/08/27 08:26:15;;;;;;;4.95;2.50;;;;;;;18.00;100.00;100403.84;4971339;28;21514;-62
2023/08/27 08:28:41;;;;;;;7.88;4.57;;;;;;;18.19;100.00;100392.06;4970602;28;20101;-63
2023/08/27 08:31:08;;;;;;;6.28;3.30;;;;;;;18.31;100.00;100400.38;4970451;28;20051;-63
2023/08/27 08:33:35;;;;;;;6.88;2.92;;;;;;;18.09;100.00;100391.69;4971902;28;20146;-63
2023/08/27 08:36:01;;;;;;;6.50;2.40;;;;;;;18.09;100.00;100397.94;4970735;28;20050;-62
2023/08/27 08:38:28;;;;;;;4.15;2.30;;;;;;;17.87;100.00;100401.22;4970217;28;20546;-63
2023/08/27 08:41:00;;;;;;;6.47;2.63;;;;;;;17.64;100.00;100394.41;4969925;28;20049;-63
2023/08/27 08:43:35;;;;;;;5.03;2.20;;;;;;;17.66;100.00;100369.78;4968631;28;20043;-63
2023/08/27 08:46:04;;;;;;;8.90;2.38;;;;;;;17.58;100.00;100370.88;4970534;28;20167;-62
2023/08/27 08:48:38;;;;;;;9.65;2.40;;;;;;;17.41;100.00;100361.56;4969553;28;20130;-62
2023/08/27 08:51:09;;;;;;;9.05;2.40;;;;;;;17.38;100.00;100370.13;4953754;28;20050;-62
2023/08/27 08:53:44;;;;;;;10.73;2.15;;;;;;;17.37;100.00;100371.97;4969937;28;20047;-62
2023/08/27 08:56:15;;;;;;;5.35;2.45;;;;;;;17.44;100.00;100369.22;4971272;28;20066;-63
2023/08/27 08:58:49;;;;;;;5.13;2.07;;;;;;;17.38;100.00;100368.22;4953147;28;20046;-63
2023/08/27 09:01:19;;;;;;;11.07;2.22;;;;;;;17.64;100.00;100367.28;4969883;28;20526;-61
2023/08/27 09:03:47;;;;;;;4.13;1.95;;;;;;;17.56;100.00;100371.06;4969400;28;20473;-63
2023/08/27 09:06:18;;;;;;;7.05;2.00;;;;;;;17.28;100.00;100352.38;4968929;28;20054;-62
2023/08/27 09:08:46;;;;;;;5.43;2.45;;;;;;;17.07;100.00;100353.47;4969152;28;20066;-62
2023/08/27 09:11:14;;;;;;;7.00;2.47;;;;;;;17.07;100.00;100363.50;4970005;28;20097;-63
2023/08/27 09:13:41;;;;;;;8.32;2.22;;;;;;;17.37;100.00;100371.97;4951031;28;20423;-63
2023/08/27 09:16:09;;;;;;;6.75;2.38;;;;;;;17.63;100.00;100392.75;4970387;28;20051;-63
2023/08/27 09:18:36;;;;;;;6.38;2.50;;;;;;;17.57;100.00;100383.56;4952591;28;20101;-63
2023/08/27 09:21:03;;;;;;;3.67;1.90;;;;;;;17.60;100.00;100383.16;4969846;28;20117;-63
2023/08/27 09:23:29;;;;;;;4.95;2.00;;;;;;;17.58;94.42;100379.00;4968006;28;20109;-63
2023/08/27 09:26:00;;;;;;;6.05;2.20;;;;;;;17.37;99.32;100371.97;4970795;28;20542;-64
2023/08/27 09:28:26;;;;;;;3.67;2.20;;;;;;;17.36;100.00;100375.72;4969650;28;20055;-63
2023/08/27 09:30:53;;;;;;;6.88;2.20;;;;;;;17.30;100.00;100355.72;4970219;28;20046;-63
2023/08/27 09:33:35;;;;;;;7.03;2.60;;;;;;;17.34;97.22;100342.59;4968997;28;20506;-63
2023/08/27 09:36:02;;;;;;;4.00;1.85;;;;;;;17.44;91.75;100334.84;4965787;28;20492;-63
2023/08/27 09:38:30;;;;;;;4.15;1.90;;;;;;;17.57;92.40;100340.19;4962106;28;20118;-63
2023/08/27 09:41:17;;;;;;;6.15;1.95;;;;;;;17.48;95.14;100336.06;4969751;28;20051;-64
2023/08/27 09:43:52;;;;;;;7.30;2.30;;;;;;;17.44;94.60;100340.25;4968360;28;20055;-63
2023/08/27 09:46:20;;;;;;;7.50;2.05;;;;;;;17.60;94.80;100350.59;4950446;28;20102;-63
2023/08/27 09:49:06;;;;;;;4.28;1.88;;;;;;;17.65;95.18;100343.69;4959340;28;20418;-63
2023/08/27 09:51:35;;;;;;;4.18;1.92;;;;;;;17.79;94.07;100342.59;4962654;28;20474;-64
2023/08/27 09:54:20;;;;;;;7.43;2.35;;;;;;;18.08;91.35;100347.41;4967254;28;20058;-63
2023/08/27 09:56:50;;;;;;;6.28;2.10;;;;;;;18.15;89.83;100346.56;4969675;28;20047;-63
2023/08/27 09:59:18;;;;;;;5.88;1.92;;;;;;;17.96;90.10;100343.75;4965832;28;20063;-63
2023/08/27 10:01:47;;;;;;;4.22;2.00;;;;;;;18.15;90.64;100341.16;4949628;28;20106;-62
2023/08/27 10:04:15;;;;;;;6.65;2.10;;;;;;;18.43;88.55;100349.69;4949811;28;20102;-63
2023/08/27 10:06:42;;;;;;;2.88;1.65;;;;;;;18.42;87.54;100347.22;4959681;28;20062;-63
2023/08/27 10:09:08;;;;;;;2.92;1.88;;;;;;;18.72;88.29;100334.63;4983491;28;20070;-64
2023/08/27 10:11:36;;;;;;;6.93;2.20;;;;;;;18.92;86.58;100334.44;4967800;28;20047;-62
2023/08/27 10:14:04;;;;;;;10.38;2.08;;;;;;;18.99;84.51;100337.91;4968788;28;20110;-63
2023/08/27 10:16:31;;;;;;;9.13;2.15;;;;;;;19.23;84.64;100327.22;4969443;28;20061;-64
2023/08/27 10:19:01;;;;;;;4.50;1.98;;;;;;;19.40;79.04;100327.44;4970090;28;20133;-64
2023/08/27 10:21:28;;;;;;;6.30;2.30;;;;;;;19.07;83.51;100327.81;4968171;28;20537;-64
2023/08/27 10:23:56;;;;;;;4.63;1.80;;;;;;;19.24;79.87;100323.41;4970389;28;20038;-63
2023/08/27 10:26:23;;;;;;;5.95;2.20;;;;;;;18.83;78.08;100324.91;4974071;28;20491;-62
2023/08/27 10:28:54;;;;;;;7.07;1.95;;;;;;;18.96;76.73;100332.09;4974939;28;20078;-61
2023/08/27 10:31:21;;;;;;;7.47;1.88;;;;;;;18.46;79.96;100337.56;4971451;28;20121;-62
2023/08/27 10:33:48;;;;;;;6.35;2.22;;;;;;;18.29;82.98;100338.09;4973108;28;20414;-62
2023/08/27 10:36:19;;;;;;;7.05;2.20;;;;;;;17.94;85.01;100342.28;4973127;28;20051;-65
2023/08/27 10:38:48;;;;;;;5.55;1.95;;;;;;;17.78;92.30;100336.31;4972178;28;20488;-63
2023/08/27 10:41:20;;;;;;;5.07;1.60;;;;;;;17.93;96.49;100338.75;4973257;28;20058;-62
2023/08/27 10:43:47;;;;;;;7.80;1.80;;;;;;;18.01;96.08;100319.50;4972931;28;20517;-62
2023/08/27 10:46:16;;;;;;;5.57;1.98;;;;;;;18.11;96.71;100312.75;4972192;28;20463;-62
2023/08/27 10:48:50;;;;;;;7.07;2.08;;;;;;;18.23;94.93;100319.97;4972802;28;20051;-62
2023/08/27 10:51:18;;;;;;;4.78;1.65;;;;;;;18.13;93.93;100319.59;4972773;28;20101;-62
2023/08/27 10:53:50;;;;;;;9.38;2.50;;;;;;;18.28;92.59;100325.59;4972990;28;20050;-62
2023/08/27 10:56:26;;;;;;;6.40;2.75;;;;;;;18.24;93.17;100326.25;4988788;28;20050;-62
2023/08/27 10:58:56;;;;;;;5.00;2.08;;;;;;;18.61;91.36;100312.78;4972558;28;20042;-62
2023/08/27 11:01:23;;;;;;;5.78;2.13;;;;;;;18.64;86.22;100309.63;4956780;28;20459;-62
2023/08/27 11:03:58;;;;;;;6.30;2.10;;;;;;;18.27;82.67;100301.34;4953245;28;20074;-61
2023/08/27 11:06:38;;;;;;;6.47;2.10;;;;;;;18.06;86.39;100292.53;4953252;28;20070;-63
2023/08/27 11:09:18;;;;;;;4.82;1.80;;;;;;;18.29;87.69;100288.41;4951629;28;20039;-63
2023/08/27 11:11:53;;;;;;;8.82;2.50;;;;;;;18.18;90.12;100300.00;4953173;28;20061;-62
2023/08/27 11:14:22;;;;;;;8.75;2.90;;;;;;;18.18;93.09;100305.41;4952214;28;20452;-63
2023/08/27 11:16:53;;;;;;;7.13;2.67;;;;;;;18.26;93.70;100307.84;4951766;28;20047;-62
2023/08/27 11:19:25;;;;;;;7.50;2.17;;;;;;;18.25;87.22;100312.44;4953276;28;20463;-63
2023/08/27 11:22:17;;;;;;;10.20;2.58;;;;;;;18.15;84.92;100320.25;4953331;28;20134;-62
2023/08/27 11:24:52;;;;;;;5.20;2.00;;;;;;;18.16;86.08;100312.94;4952890;28;20106;-63